sensor_id;sensor_type;location;lat;lon;timestamp;temperature;humidity
15638;DHT22;26604;53.596;10.042;2023-09-30T00:01:56;12.20;99.90
15638;DHT22;26604;53.596;10.042;2023-09-30T00:04:25;12.10;99.90
15638;DHT22;26604;53.596;10.042;2023-09-30T00:06:53;12.20;99.90
15638;DHT22;26604;53.596;10.042;2023-09-30T00:09:20;12.20;99.90
15638;DHT22;26604;53.596;10.042;2023-09-30T00:11:47;12.10;99.90
15638;DHT22;26604;53.596;10.042;2023-09-30T00:14:14;12.10;99.90
15638;DHT22;26604;53.596;10.042;2023-09-30T00:16:42;12.10;99.90
15638;DHT22;26604;53.596;10.042;2023-09-30T00:19:09;12.00;99.90
15638;DHT22;26604;53.596;10.042;2023-09-30T00:21:38;12.00;99.90
15638;DHT22;26604;53.596;10.042;2023-09-30T00:24:05;12.00;99.90
15638;DHT22;26604;53.596;10.042;2023-09-30T00:26:32;12.10;99.90
15638;DHT22;26604;53.596;10.042;2023-09-30T00:29:01;12.10;99.90
15638;DHT22;26604;53.596;10.042;2023-09-30T00:31:30;12.10;99.90
15638;DHT22;26604;53.596;10.042;2023-09-30T00:33:57;12.00;99.90
15638;DHT22;26604;53.596;10.042;2023-09-30T00:36:24;12.00;99.90
15638;DHT22;26604;53.596;10.042;2023-09-30T00:38:53;12.00;99.90
15638;DHT22;26604;53.596;10.042;2023-09-30T00:41:20;12.00;99.90
15638;DHT22;26604;53.596;10.042;2023-09-30T00:43:47;12.10;99.90
15638;DHT22;26604;53.596;10.042;2023-09-30T00:46:20;12.10;99.90
15638;DHT22;26604;53.596;10.042;2023-09-30T00:48:53;12.10;99.90
15638;DHT22;26604;53.596;10.042;2023-09-30T00:51:19;12.10;99.90
15638;DHT22;26604;53.596;10.042;2023-09-30T00:53:46;12.30;99.90
15638;DHT22;26604;53.596;10.042;2023-09-30T00:56:15;12.20;99.90
15638;DHT22;26604;53.596;10.042;2023-09-30T00:58:42;12.20;99.90
15638;DHT22;26604;53.596;10.042;2023-09-30T01:01:09;12.10;99.90
15638;DHT22;26604;53.596;10.042;2023-09-30T01:03:37;12.10;99.90
15638;DHT22;26604;53.596;10.042;2023-09-30T01:06:05;12.10;99.90
15638;DHT22;26604;53.596;10.042;2023-09-30T01:08:32;12.10;99.90
15638;DHT22;26604;53.596;10.042;2023-09-30T01:11:00;12.10;99.90
15638;DHT22;26604;53.596;10.042;2023-09-30T01:13:33;12.10;99.90
15638;DHT22;26604;53.596;10.042;2023-09-30T01:16:03;12.00;99.90
15638;DHT22;26604;53.596;10.042;2023-09-30T01:18:30;12.00;99.90
15638;DHT22;26604;53.596;10.042;2023-09-30T01:20:57;12.00;99.90
15638;DHT22;26604;53.596;10.042;2023-09-30T01:23:26;11.90;99.90
15638;DHT22;26604;53.596;10.042;2023-09-30T01:25:53;11.90;99.90
15638;DHT22;26604;53.596;10.042;2023-09-30T01:28:20;11.90;99.90
15638;DHT22;26604;53.596;10.042;2023-09-30T01:30:48;11.90;99.90
15638;DHT22;26604;53.596;10.042;2023-09-30T01:33:15;12.00;99.90
15638;DHT22;26604;53.596;10.042;2023-09-30T01:35:44;12.00;99.90
15638;DHT22;26604;53.596;10.042;2023-09-30T01:38:11;12.10;99.90
15638;DHT22;26604;53.596;10.042;2023-09-30T01:40:40;12.10;99.90
15638;DHT22;26604;53.596;10.042;2023-09-30T01:43:07;12.10;99.90
15638;DHT22;26604;53.596;10.042;2023-09-30T01:45:34;12.10;99.90
15638;DHT22;26604;53.596;10.042;2023-09-30T01:48:02;12.00;99.90
15638;DHT22;26604;53.596;10.042;2023-09-30T01:50:29;12.00;99.90
15638;DHT22;26604;53.596;10.042;2023-09-30T01:52:56;12.00;99.90
15638;DHT22;26604;53.596;10.042;2023-09-30T01:55:23;11.90;99.90
15638;DHT22;26604;53.596;10.042;2023-09-30T01:57:51;11.90;99.90
15638;DHT22;26604;53.596;10.042;2023-09-30T02:00:18;11.90;99.90
15638;DHT22;26604;53.596;10.042;2023-09-30T02:02:45;11.90;99.90
15638;DHT22;26604;53.596;10.042;2023-09-30T02:05:12;12.00;99.90
15638;DHT22;26604;53.596;10.042;2023-09-30T02:07:39;11.90;99.90
15638;DHT22;26604;53.596;10.042;2023-09-30T02:10:07;11.90;99.90
15638;DHT22;26604;53.596;10.042;2023-09-30T02:12:37;11.90;99.90
15638;DHT22;26604;53.596;10.042;2023-09-30T02:15:06;11.90;99.90
15638;DHT22;26604;53.596;10.042;2023-09-30T02:17:33;12.00;99.90
15638;DHT22;26604;53.596;10.042;2023-09-30T02:20:00;11.90;99.90
15638;DHT22;26604;53.596;10.042;2023-09-30T02:22:31;11.90;99.90
15638;DHT22;26604;53.596;10.042;2023-09-30T02:24:58;11.90;99.90
15638;DHT22;26604;53.596;10.042;2023-09-30T02:27:25;11.90;99.90
15638;DHT22;26604;53.596;10.042;2023-09-30T02:29:53;11.80;99.90
15638;DHT22;26604;53.596;10.042;2023-09-30T02:32:21;11.90;99.90
15638;DHT22;26604;53.596;10.042;2023-09-30T02:34:49;11.90;99.90
15638;DHT22;26604;53.596;10.042;2023-09-30T02:37:17;11.90;99.90
15638;DHT22;26604;53.596;10.042;2023-09-30T02:39:44;11.90;99.90
15638;DHT22;26604;53.596;10.042;2023-09-30T02:42:11;11.90;99.90
15638;DHT22;26604;53.596;10.042;2023-09-30T02:44:38;11.90;99.90
15638;DHT22;26604;53.596;10.042;2023-09-30T02:47:05;11.80;99.90
15638;DHT22;26604;53.596;10.042;2023-09-30T02:49:34;11.80;99.90
15638;DHT22;26604;53.596;10.042;2023-09-30T02:52:00;11.80;99.90
15638;DHT22;26604;53.596;10.042;2023-09-30T02:54:29;11.80;99.90
15638;DHT22;26604;53.596;10.042;2023-09-30T02:56:56;11.90;99.90
15638;DHT22;26604;53.596;10.042;2023-09-30T02:59:23;12.60;99.90
15638;DHT22;26604;53.596;10.042;2023-09-30T03:01:50;11.80;99.90
15638;DHT22;26604;53.596;10.042;2023-09-30T03:04:17;11.70;99.90
15638;DHT22;26604;53.596;10.042;2023-09-30T03:06:46;11.70;99.90
15638;DHT22;26604;53.596;10.042;2023-09-30T03:09:16;11.70;99.90
15638;DHT22;26604;53.596;10.042;2023-09-30T03:11:43;11.70;99.90
15638;DHT22;26604;53.596;10.042;2023-09-30T03:14:11;11.70;99.90
15638;DHT22;26604;53.596;10.042;2023-09-30T03:16:39;11.70;99.90
15638;DHT22;26604;53.596;10.042;2023-09-30T03:19:07;11.70;99.90
15638;DHT22;26604;53.596;10.042;2023-09-30T03:21:34;11.80;99.90
15638;DHT22;26604;53.596;10.042;2023-09-30T03:24:04;11.80;99.90
15638;DHT22;26604;53.596;10.042;2023-09-30T03:26:33;11.70;99.90
15638;DHT22;26604;53.596;10.042;2023-09-30T03:29:01;11.70;99.90
15638;DHT22;26604;53.596;10.042;2023-09-30T03:31:29;11.70;99.90
15638;DHT22;26604;53.596;10.042;2023-09-30T03:33:56;11.70;99.90
15638;DHT22;26604;53.596;10.042;2023-09-30T03:36:22;11.70;99.90
15638;DHT22;26604;53.596;10.042;2023-09-30T03:38:50;11.60;99.90
15638;DHT22;26604;53.596;10.042;2023-09-30T03:41:21;11.50;99.90
15638;DHT22;26604;53.596;10.042;2023-09-30T03:43:48;11.60;99.90
15638;DHT22;26604;53.596;10.042;2023-09-30T03:46:16;11.60;99.90
15638;DHT22;26604;53.596;10.042;2023-09-30T03:48:43;11.60;99.90
15638;DHT22;26604;53.596;10.042;2023-09-30T03:51:11;11.60;99.90
15638;DHT22;26604;53.596;10.042;2023-09-30T03:53:39;11.70;99.90
15638;DHT22;26604;53.596;10.042;2023-09-30T03:56:06;11.80;99.90
15638;DHT22;26604;53.596;10.042;2023-09-30T03:58:34;11.80;99.90
15638;DHT22;26604;53.596;10.042;2023-09-30T04:01:03;11.80;99.90
15638;DHT22;26604;53.596;10.042;2023-09-30T04:03:30;11.80;99.90
15638;DHT22;26604;53.596;10.042;2023-09-30T04:05:58;11.90;99.90
15638;DHT22;26604;53.596;10.042;2023-09-30T04:08:25;11.90;99.90
15638;DHT22;26604;53.596;10.042;2023-09-30T04:10:52;11.80;99.90
15638;DHT22;26604;53.596;10.042;2023-09-30T04:13:19;11.80;99.90
15638;DHT22;26604;53.596;10.042;2023-09-30T04:15:48;11.70;99.90
15638;DHT22;26604;53.596;10.042;2023-09-30T04:18:15;11.70;99.90
15638;DHT22;26604;53.596;10.042;2023-09-30T04:20:42;11.70;99.90
15638;DHT22;26604;53.596;10.042;2023-09-30T04:23:10;11.70;99.90
15638;DHT22;26604;53.596;10.042;2023-09-30T04:25:38;11.70;99.90
15638;DHT22;26604;53.596;10.042;2023-09-30T04:28:05;11.70;99.90
15638;DHT22;26604;53.596;10.042;2023-09-30T04:30:34;11.80;99.90
15638;DHT22;26604;53.596;10.042;2023-09-30T04:33:03;11.80;99.90
15638;DHT22;26604;53.596;10.042;2023-09-30T04:35:30;11.80;99.90
15638;DHT22;26604;53.596;10.042;2023-09-30T04:37:57;11.80;99.90
15638;DHT22;26604;53.596;10.042;2023-09-30T04:40:26;11.80;99.90
15638;DHT22;26604;53.596;10.042;2023-09-30T04:42:53;11.80;99.90
15638;DHT22;26604;53.596;10.042;2023-09-30T04:45:24;11.80;99.90
15638;DHT22;26604;53.596;10.042;2023-09-30T04:47:51;11.80;99.90
15638;DHT22;26604;53.596;10.042;2023-09-30T04:50:20;11.80;99.90
15638;DHT22;26604;53.596;10.042;2023-09-30T04:52:47;11.80;99.90
15638;DHT22;26604;53.596;10.042;2023-09-30T04:55:15;11.80;99.90
15638;DHT22;26604;53.596;10.042;2023-09-30T04:57:42;11.80;99.90
15638;DHT22;26604;53.596;10.042;2023-09-30T05:00:12;11.80;99.90
15638;DHT22;26604;53.596;10.042;2023-09-30T05:02:39;11.90;99.90
15638;DHT22;26604;53.596;10.042;2023-09-30T05:05:06;11.90;99.90
15638;DHT22;26604;53.596;10.042;2023-09-30T05:07:35;11.90;99.90
15638;DHT22;26604;53.596;10.042;2023-09-30T05:10:02;11.80;99.90
15638;DHT22;26604;53.596;10.042;2023-09-30T05:12:31;11.70;99.90
15638;DHT22;26604;53.596;10.042;2023-09-30T05:14:58;11.90;99.90
15638;DHT22;26604;53.596;10.042;2023-09-30T05:17:25;11.90;99.90
15638;DHT22;26604;53.596;10.042;2023-09-30T05:19:54;11.90;99.90
15638;DHT22;26604;53.596;10.042;2023-09-30T05:22:20;11.90;99.90
15638;DHT22;26604;53.596;10.042;2023-09-30T05:24:51;11.90;99.90
15638;DHT22;26604;53.596;10.042;2023-09-30T05:27:18;11.90;99.90
15638;DHT22;26604;53.596;10.042;2023-09-30T05:29:45;11.80;99.90
15638;DHT22;26604;53.596;10.042;2023-09-30T05:32:12;11.80;99.90
15638;DHT22;26604;53.596;10.042;2023-09-30T05:34:40;11.90;99.90
15638;DHT22;26604;53.596;10.042;2023-09-30T05:37:07;11.80;99.90
15638;DHT22;26604;53.596;10.042;2023-09-30T05:39:33;11.90;99.90
15638;DHT22;26604;53.596;10.042;2023-09-30T05:42:02;11.90;99.90
15638;DHT22;26604;53.596;10.042;2023-09-30T05:44:31;12.00;99.90
15638;DHT22;26604;53.596;10.042;2023-09-30T05:46:58;12.00;99.90
15638;DHT22;26604;53.596;10.042;2023-09-30T05:49:25;12.00;99.90
15638;DHT22;26604;53.596;10.042;2023-09-30T05:51:52;12.00;99.90
15638;DHT22;26604;53.596;10.042;2023-09-30T05:54:20;12.00;99.90
15638;DHT22;26604;53.596;10.042;2023-09-30T05:56:48;12.10;99.90
15638;DHT22;26604;53.596;10.042;2023-09-30T05:59:16;12.10;99.90
15638;DHT22;26604;53.596;10.042;2023-09-30T06:01:43;12.20;99.90
15638;DHT22;26604;53.596;10.042;2023-09-30T06:04:12;12.20;99.90
15638;DHT22;26604;53.596;10.042;2023-09-30T06:06:39;12.30;99.90
15638;DHT22;26604;53.596;10.042;2023-09-30T06:09:09;12.30;99.90
15638;DHT22;26604;53.596;10.042;2023-09-30T06:11:37;12.40;99.90
15638;DHT22;26604;53.596;10.042;2023-09-30T06:14:04;12.50;99.90
15638;DHT22;26604;53.596;10.042;2023-09-30T06:16:33;12.60;99.90
15638;DHT22;26604;53.596;10.042;2023-09-30T06:19:00;12.70;99.90
15638;DHT22;26604;53.596;10.042;2023-09-30T06:21:27;12.70;99.90
15638;DHT22;26604;53.596;10.042;2023-09-30T06:23:55;12.70;99.90
15638;DHT22;26604;53.596;10.042;2023-09-30T06:26:22;12.70;99.90
15638;DHT22;26604;53.596;10.042;2023-09-30T06:28:50;12.70;99.90
15638;DHT22;26604;53.596;10.042;2023-09-30T06:31:19;12.70;99.90
15638;DHT22;26604;53.596;10.042;2023-09-30T06:33:48;12.70;99.90
15638;DHT22;26604;53.596;10.042;2023-09-30T06:36:26;12.70;99.90
15638;DHT22;26604;53.596;10.042;2023-09-30T06:38:53;12.70;99.90
15638;DHT22;26604;53.596;10.042;2023-09-30T06:41:35;12.70;99.90
15638;DHT22;26604;53.596;10.042;2023-09-30T06:44:27;12.70;99.90
15638;DHT22;26604;53.596;10.042;2023-09-30T06:46:56;12.70;99.90
15638;DHT22;26604;53.596;10.042;2023-09-30T06:49:25;12.70;99.90
15638;DHT22;26604;53.596;10.042;2023-09-30T06:51:52;12.70;99.90
15638;DHT22;26604;53.596;10.042;2023-09-30T06:54:19;12.80;99.90
15638;DHT22;26604;53.596;10.042;2023-09-30T06:56:45;12.80;99.90
15638;DHT22;26604;53.596;10.042;2023-09-30T06:59:12;12.90;99.90
15638;DHT22;26604;53.596;10.042;2023-09-30T07:01:43;12.90;99.90
15638;DHT22;26604;53.596;10.042;2023-09-30T07:04:10;13.00;99.90
15638;DHT22;26604;53.596;10.042;2023-09-30T07:06:38;13.00;99.90
15638;DHT22;26604;53.596;10.042;2023-09-30T07:09:05;13.10;99.90
15638;DHT22;26604;53.596;10.042;2023-09-30T07:11:32;14.50;99.90
15638;DHT22;26604;53.596;10.042;2023-09-30T07:14:00;13.20;99.90
15638;DHT22;26604;53.596;10.042;2023-09-30T07:16:27;13.30;99.90
15638;DHT22;26604;53.596;10.042;2023-09-30T07:18:54;13.40;99.90
15638;DHT22;26604;53.596;10.042;2023-09-30T07:21:21;13.50;99.90
15638;DHT22;26604;53.596;10.042;2023-09-30T07:23:50;13.50;99.90
15638;DHT22;26604;53.596;10.042;2023-09-30T07:26:17;13.60;99.90
15638;DHT22;26604;53.596;10.042;2023-09-30T07:28:43;13.70;99.90
15638;DHT22;26604;53.596;10.042;2023-09-30T07:31:10;13.70;99.90
15638;DHT22;26604;53.596;10.042;2023-09-30T07:33:39;13.80;99.90
15638;DHT22;26604;53.596;10.042;2023-09-30T07:36:06;13.90;99.90
15638;DHT22;26604;53.596;10.042;2023-09-30T07:38:33;14.00;99.90
15638;DHT22;26604;53.596;10.042;2023-09-30T07:41:01;14.00;99.90
15638;DHT22;26604;53.596;10.042;2023-09-30T07:43:30;14.10;99.90
15638;DHT22;26604;53.596;10.042;2023-09-30T07:45:57;14.20;99.90
15638;DHT22;26604;53.596;10.042;2023-09-30T07:48:24;14.20;99.90
15638;DHT22;26604;53.596;10.042;2023-09-30T07:50:51;14.30;99.90
15638;DHT22;26604;53.596;10.042;2023-09-30T07:53:18;14.30;99.90
15638;DHT22;26604;53.596;10.042;2023-09-30T07:55:47;14.40;99.90
15638;DHT22;26604;53.596;10.042;2023-09-30T07:58:15;14.50;99.90
15638;DHT22;26604;53.596;10.042;2023-09-30T08:00:42;14.60;99.90
15638;DHT22;26604;53.596;10.042;2023-09-30T08:03:11;14.60;99.90
15638;DHT22;26604;53.596;10.042;2023-09-30T08:05:38;14.70;99.90
15638;DHT22;26604;53.596;10.042;2023-09-30T08:08:05;14.80;99.90
15638;DHT22;26604;53.596;10.042;2023-09-30T08:10:32;14.80;99.90
15638;DHT22;26604;53.596;10.042;2023-09-30T08:13:00;14.90;99.90
15638;DHT22;26604;53.596;10.042;2023-09-30T08:15:29;15.00;99.90
15638;DHT22;26604;53.596;10.042;2023-09-30T08:17:56;15.10;99.90
15638;DHT22;26604;53.596;10.042;2023-09-30T08:20:23;15.20;99.90
15638;DHT22;26604;53.596;10.042;2023-09-30T08:22:50;15.30;99.90
15638;DHT22;26604;53.596;10.042;2023-09-30T08:25:17;15.40;99.90
15638;DHT22;26604;53.596;10.042;2023-09-30T08:27:44;15.50;99.90
15638;DHT22;26604;53.596;10.042;2023-09-30T08:30:15;15.50;99.90
15638;DHT22;26604;53.596;10.042;2023-09-30T08:32:44;15.60;99.90
15638;DHT22;26604;53.596;10.042;2023-09-30T08:35:12;15.70;99.90
15638;DHT22;26604;53.596;10.042;2023-09-30T08:37:40;15.80;99.90
15638;DHT22;26604;53.596;10.042;2023-09-30T08:40:07;15.90;99.90
15638;DHT22;26604;53.596;10.042;2023-09-30T08:42:38;16.00;99.90
15638;DHT22;26604;53.596;10.042;2023-09-30T08:45:10;16.00;99.90
15638;DHT22;26604;53.596;10.042;2023-09-30T08:47:37;16.10;99.90
15638;DHT22;26604;53.596;10.042;2023-09-30T08:50:09;16.10;99.90
15638;DHT22;26604;53.596;10.042;2023-09-30T08:52:38;16.20;99.90
15638;DHT22;26604;53.596;10.042;2023-09-30T08:55:07;16.20;99.90
15638;DHT22;26604;53.596;10.042;2023-09-30T08:57:37;16.20;99.90
15638;DHT22;26604;53.596;10.042;2023-09-30T09:00:06;16.30;99.90
15638;DHT22;26604;53.596;10.042;2023-09-30T09:02:34;16.30;99.90
15638;DHT22;26604;53.596;10.042;2023-09-30T09:05:02;16.40;99.90
15638;DHT22;26604;53.596;10.042;2023-09-30T09:07:30;16.40;99.90
15638;DHT22;26604;53.596;10.042;2023-09-30T09:10:04;16.50;99.90
15638;DHT22;26604;53.596;10.042;2023-09-30T09:12:33;16.50;99.90
15638;DHT22;26604;53.596;10.042;2023-09-30T09:15:00;16.50;99.90
15638;DHT22;26604;53.596;10.042;2023-09-30T09:17:40;16.60;99.90
15638;DHT22;26604;53.596;10.042;2023-09-30T09:20:08;16.70;99.90
15638;DHT22;26604;53.596;10.042;2023-09-30T09:22:42;16.70;99.90
15638;DHT22;26604;53.596;10.042;2023-09-30T09:25:10;16.80;99.90
15638;DHT22;26604;53.596;10.042;2023-09-30T09:27:37;16.80;99.90
15638;DHT22;26604;53.596;10.042;2023-09-30T09:30:15;16.90;99.90
15638;DHT22;26604;53.596;10.042;2023-09-30T09:32:52;17.00;99.90
15638;DHT22;26604;53.596;10.042;2023-09-30T09:35:20;17.10;99.90
15638;DHT22;26604;53.596;10.042;2023-09-30T09:37:58;17.20;99.90
15638;DHT22;26604;53.596;10.042;2023-09-30T09:40:27;17.20;99.90
15638;DHT22;26604;53.596;10.042;2023-09-30T09:42:55;17.30;99.90
15638;DHT22;26604;53.596;10.042;2023-09-30T09:45:22;17.30;99.90
15638;DHT22;26604;53.596;10.042;2023-09-30T09:47:50;17.30;99.90
15638;DHT22;26604;53.596;10.042;2023-09-30T09:50:18;17.30;99.90
15638;DHT22;26604;53.596;10.042;2023-09-30T09:52:48;17.30;99.90
15638;DHT22;26604;53.596;10.042;2023-09-30T09:55:19;17.30;99.90
15638;DHT22;26604;53.596;10.042;2023-09-30T09:57:48;17.40;99.90
15638;DHT22;26604;53.596;10.042;2023-09-30T10:00:16;17.40;99.90
15638;DHT22;26604;53.596;10.042;2023-09-30T10:02:44;17.40;99.90
15638;DHT22;26604;53.596;10.042;2023-09-30T10:05:12;17.40;99.90
15638;DHT22;26604;53.596;10.042;2023-09-30T10:07:44;17.50;99.90
15638;DHT22;26604;53.596;10.042;2023-09-30T10:10:14;17.60;99.90
15638;DHT22;26604;53.596;10.042;2023-09-30T10:12:44;17.70;99.90
15638;DHT22;26604;53.596;10.042;2023-09-30T10:15:37;17.80;99.90
15638;DHT22;26604;53.596;10.042;2023-09-30T10:18:07;17.90;99.90
15638;DHT22;26604;53.596;10.042;2023-09-30T10:20:36;18.00;99.90
15638;DHT22;26604;53.596;10.042;2023-09-30T10:23:23;18.10;99.90
15638;DHT22;26604;53.596;10.042;2023-09-30T10:25:53;18.20;99.90
15638;DHT22;26604;53.596;10.042;2023-09-30T10:28:35;18.40;99.90
15638;DHT22;26604;53.596;10.042;2023-09-30T10:31:12;18.60;99.90
15638;DHT22;26604;53.596;10.042;2023-09-30T10:34:18;18.80;99.90
15638;DHT22;26604;53.596;10.042;2023-09-30T10:36:46;18.90;99.90
15638;DHT22;26604;53.596;10.042;2023-09-30T10:39:58;18.80;99.90
15638;DHT22;26604;53.596;10.042;2023-09-30T10:42:47;18.70;99.90
15638;DHT22;26604;53.596;10.042;2023-09-30T10:45:42;18.50;99.90
15638;DHT22;26604;53.596;10.042;2023-09-30T10:48:32;18.50;99.90
15638;DHT22;26604;53.596;10.042;2023-09-30T10:51:00;18.60;99.90
15638;DHT22;26604;53.596;10.042;2023-09-30T10:53:28;18.60;99.90
15638;DHT22;26604;53.596;10.042;2023-09-30T10:55:56;18.60;99.90
15638;DHT22;26604;53.596;10.042;2023-09-30T10:58:39;18.70;99.90
15638;DHT22;26604;53.596;10.042;2023-09-30T11:01:07;18.80;99.90
15638;DHT22;26604;53.596;10.042;2023-09-30T11:03:34;19.00;99.90
15638;DHT22;26604;53.596;10.042;2023-09-30T11:06:02;19.10;99.90
15638;DHT22;26604;53.596;10.042;2023-09-30T11:08:30;19.20;99.90
15638;DHT22;26604;53.596;10.042;2023-09-30T11:10:57;19.20;99.90
15638;DHT22;26604;53.596;10.042;2023-09-30T11:13:32;19.20;99.90
15638;DHT22;26604;53.596;10.042;2023-09-30T11:16:02;19.20;99.90
15638;DHT22;26604;53.596;10.042;2023-09-30T11:18:32;19.10;99.90
15638;DHT22;26604;53.596;10.042;2023-09-30T11:21:06;19.10;99.90
15638;DHT22;26604;53.596;10.042;2023-09-30T11:23:35;19.00;99.90
15638;DHT22;26604;53.596;10.042;2023-09-30T11:26:02;19.20;99.90
15638;DHT22;26604;53.596;10.042;2023-09-30T11:28:38;19.40;99.90
15638;DHT22;26604;53.596;10.042;2023-09-30T11:31:08;19.50;99.90
15638;DHT22;26604;53.596;10.042;2023-09-30T11:33:53;19.60;99.90
15638;DHT22;26604;53.596;10.042;2023-09-30T11:36:23;19.70;99.90
15638;DHT22;26604;53.596;10.042;2023-09-30T11:38:51;19.80;99.90
15638;DHT22;26604;53.596;10.042;2023-09-30T11:41:19;19.70;99.90
15638;DHT22;26604;53.596;10.042;2023-09-30T11:44:01;19.80;99.90
15638;DHT22;26604;53.596;10.042;2023-09-30T11:46:30;19.90;99.90
15638;DHT22;26604;53.596;10.042;2023-09-30T11:49:01;19.90;99.90
15638;DHT22;26604;53.596;10.042;2023-09-30T11:51:29;19.80;99.90
15638;DHT22;26604;53.596;10.042;2023-09-30T11:53:57;19.80;99.90
15638;DHT22;26604;53.596;10.042;2023-09-30T11:56:24;19.80;99.90
15638;DHT22;26604;53.596;10.042;2023-09-30T11:58:55;19.70;99.90
15638;DHT22;26604;53.596;10.042;2023-09-30T12:01:22;19.70;99.90
15638;DHT22;26604;53.596;10.042;2023-09-30T12:03:51;19.60;99.90
15638;DHT22;26604;53.596;10.042;2023-09-30T12:06:20;19.60;99.90
15638;DHT22;26604;53.596;10.042;2023-09-30T12:08:47;19.60;99.90
15638;DHT22;26604;53.596;10.042;2023-09-30T12:11:17;19.70;99.90
15638;DHT22;26604;53.596;10.042;2023-09-30T12:13:43;19.70;99.90
15638;DHT22;26604;53.596;10.042;2023-09-30T12:16:13;19.70;99.90
15638;DHT22;26604;53.596;10.042;2023-09-30T12:18:41;19.80;99.90
15638;DHT22;26604;53.596;10.042;2023-09-30T12:21:10;19.90;99.90
15638;DHT22;26604;53.596;10.042;2023-09-30T12:23:40;19.90;99.90
15638;DHT22;26604;53.596;10.042;2023-09-30T12:26:08;19.80;99.90
15638;DHT22;26604;53.596;10.042;2023-09-30T12:28:37;19.70;99.90
15638;DHT22;26604;53.596;10.042;2023-09-30T12:31:06;19.70;99.90
15638;DHT22;26604;53.596;10.042;2023-09-30T12:33:33;20.00;99.90
15638;DHT22;26604;53.596;10.042;2023-09-30T12:36:00;19.60;99.90
15638;DHT22;26604;53.596;10.042;2023-09-30T12:38:27;19.40;99.90
15638;DHT22;26604;53.596;10.042;2023-09-30T12:40:56;19.40;99.90
15638;DHT22;26604;53.596;10.042;2023-09-30T12:43:24;19.40;99.90
15638;DHT22;26604;53.596;10.042;2023-09-30T12:45:51;19.40;99.90
15638;DHT22;26604;53.596;10.042;2023-09-30T12:48:18;19.20;99.90
15638;DHT22;26604;53.596;10.042;2023-09-30T12:50:45;19.40;99.90
15638;DHT22;26604;53.596;10.042;2023-09-30T12:53:12;19.40;99.90
15638;DHT22;26604;53.596;10.042;2023-09-30T12:55:39;19.40;99.90
15638;DHT22;26604;53.596;10.042;2023-09-30T12:58:07;19.40;99.90
15638;DHT22;26604;53.596;10.042;2023-09-30T13:00:35;19.40;99.90
15638;DHT22;26604;53.596;10.042;2023-09-30T13:03:03;19.40;99.90
15638;DHT22;26604;53.596;10.042;2023-09-30T13:05:30;19.40;99.90
15638;DHT22;26604;53.596;10.042;2023-09-30T13:07:57;19.40;99.90
15638;DHT22;26604;53.596;10.042;2023-09-30T13:10:24;19.40;99.90
15638;DHT22;26604;53.596;10.042;2023-09-30T13:12:51;19.50;99.90
15638;DHT22;26604;53.596;10.042;2023-09-30T13:15:21;19.70;99.90
15638;DHT22;26604;53.596;10.042;2023-09-30T13:17:49;19.80;99.90
15638;DHT22;26604;53.596;10.042;2023-09-30T13:20:16;19.90;99.90
15638;DHT22;26604;53.596;10.042;2023-09-30T13:22:43;19.80;99.90
15638;DHT22;26604;53.596;10.042;2023-09-30T13:25:11;19.80;99.90
15638;DHT22;26604;53.596;10.042;2023-09-30T13:27:39;19.80;99.90
15638;DHT22;26604;53.596;10.042;2023-09-30T13:30:07;19.80;99.90
15638;DHT22;26604;53.596;10.042;2023-09-30T13:32:35;19.70;99.90
15638;DHT22;26604;53.596;10.042;2023-09-30T13:35:03;19.60;99.90
15638;DHT22;26604;53.596;10.042;2023-09-30T13:37:31;19.50;99.90
15638;DHT22;26604;53.596;10.042;2023-09-30T13:39:59;19.40;99.90
15638;DHT22;26604;53.596;10.042;2023-09-30T13:42:26;19.50;99.90
15638;DHT22;26604;53.596;10.042;2023-09-30T13:44:53;19.60;99.90
15638;DHT22;26604;53.596;10.042;2023-09-30T13:47:23;19.60;99.90
15638;DHT22;26604;53.596;10.042;2023-09-30T13:49:51;19.60;99.90
15638;DHT22;26604;53.596;10.042;2023-09-30T13:52:18;19.60;99.90
15638;DHT22;26604;53.596;10.042;2023-09-30T13:54:45;19.70;99.90
15638;DHT22;26604;53.596;10.042;2023-09-30T13:57:12;19.70;99.90
15638;DHT22;26604;53.596;10.042;2023-09-30T13:59:40;19.60;99.90
15638;DHT22;26604;53.596;10.042;2023-09-30T14:02:07;19.70;99.90
15638;DHT22;26604;53.596;10.042;2023-09-30T14:04:34;19.70;99.90
15638;DHT22;26604;53.596;10.042;2023-09-30T14:07:03;19.70;99.90
15638;DHT22;26604;53.596;10.042;2023-09-30T14:09:31;19.70;99.90
15638;DHT22;26604;53.596;10.042;2023-09-30T14:11:59;21.30;99.90
15638;DHT22;26604;53.596;10.042;2023-09-30T14:14:26;19.50;99.90
15638;DHT22;26604;53.596;10.042;2023-09-30T14:16:55;19.60;99.90
15638;DHT22;26604;53.596;10.042;2023-09-30T14:19:23;19.60;99.90
15638;DHT22;26604;53.596;10.042;2023-09-30T14:22:02;19.60;99.90
15638;DHT22;26604;53.596;10.042;2023-09-30T14:24:34;19.80;99.90
15638;DHT22;26604;53.596;10.042;2023-09-30T14:27:02;19.70;99.90
15638;DHT22;26604;53.596;10.042;2023-09-30T14:29:30;19.60;99.90
15638;DHT22;26604;53.596;10.042;2023-09-30T14:32:17;19.50;99.90
15638;DHT22;26604;53.596;10.042;2023-09-30T14:34:48;19.40;99.90
15638;DHT22;26604;53.596;10.042;2023-09-30T14:37:18;19.30;99.90
15638;DHT22;26604;53.596;10.042;2023-09-30T14:39:50;19.30;99.90
15638;DHT22;26604;53.596;10.042;2023-09-30T14:42:33;19.10;99.90
15638;DHT22;26604;53.596;10.042;2023-09-30T14:45:21;19.00;99.90
15638;DHT22;26604;53.596;10.042;2023-09-30T14:47:51;18.80;99.90
15638;DHT22;26604;53.596;10.042;2023-09-30T14:50:25;18.90;99.90
15638;DHT22;26604;53.596;10.042;2023-09-30T14:59:52;19.20;99.90
15638;DHT22;26604;53.596;10.042;2023-09-30T15:02:27;18.40;99.90
15638;DHT22;26604;53.596;10.042;2023-09-30T15:08:52;18.40;99.90
15638;DHT22;26604;53.596;10.042;2023-09-30T15:11:29;19.40;99.90
15638;DHT22;26604;53.596;10.042;2023-09-30T15:17:52;18.70;99.90
15638;DHT22;26604;53.596;10.042;2023-09-30T15:27:45;18.20;99.90
15638;DHT22;26604;53.596;10.042;2023-09-30T15:30:40;18.50;99.90
15638;DHT22;26604;53.596;10.042;2023-09-30T15:33:14;18.00;99.90
15638;DHT22;26604;53.596;10.042;2023-09-30T15:36:11;18.30;99.90
15638;DHT22;26604;53.596;10.042;2023-09-30T15:38:58;17.60;99.90
15638;DHT22;26604;53.596;10.042;2023-09-30T15:41:35;17.90;99.90
15638;DHT22;26604;53.596;10.042;2023-09-30T15:44:21;18.90;99.90
15638;DHT22;26604;53.596;10.042;2023-09-30T15:47:20;18.00;99.90
15638;DHT22;26604;53.596;10.042;2023-09-30T15:50:15;17.70;99.90
15638;DHT22;26604;53.596;10.042;2023-09-30T15:53:31;16.90;99.90